createdAt,value
2022-12-08T00:00:15.091Z,61.35
2022-12-08T00:02:55.149Z,54.17
2022-12-08T00:06:07.084Z,52.80
2022-12-08T00:09:19.078Z,50.95
2022-12-08T00:12:18.075Z,55.20
2022-12-08T00:14:54.777Z,48.85
2022-12-08T00:17:41.071Z,47.30
2022-12-08T00:20:22.074Z,56.97
2022-12-08T00:23:16.068Z,59.10
2022-12-08T00:26:04.087Z,50.33
2022-12-08T00:28:45.103Z,49.42
2022-12-08T00:31:32.160Z,52.45
2022-12-08T00:34:07.884Z,53.05
2022-12-08T00:36:54.090Z,51.10
2022-12-08T00:39:34.106Z,45.90
2022-12-08T00:42:28.106Z,53.83
2022-12-08T00:45:15.114Z,53.88
2022-12-08T00:47:55.126Z,55.83
2022-12-08T00:50:42.084Z,48.97
2022-12-08T00:53:22.123Z,47.65
2022-12-08T00:56:16.100Z,48.25
2022-12-08T00:59:03.123Z,50.00
2022-12-08T01:01:43.121Z,50.50
2022-12-08T01:04:37.133Z,47.00
2022-12-08T01:07:24.079Z,48.60
2022-12-08T01:09:58.069Z,49.55
2022-12-08T01:12:45.116Z,46.13
2022-12-08T01:15:18.386Z,43.42
2022-12-08T01:18:05.135Z,44.50
2022-12-08T01:20:38.168Z,54.42
2022-12-08T01:23:25.090Z,48.28
2022-12-08T01:25:58.388Z,47.53
2022-12-08T01:28:53.110Z,53.95
2022-12-08T01:31:47.117Z,49.55
2022-12-08T01:34:34.109Z,53.90
2022-12-08T01:37:15.181Z,49.67
2022-12-08T01:40:02.527Z,46.38
2022-12-08T01:42:45.116Z,41.97
2022-12-08T01:45:37.130Z,45.83
2022-12-08T01:48:26.177Z,42.03
2022-12-08T01:51:14.127Z,38.00
2022-12-08T01:53:54.155Z,44.83
2022-12-08T01:57:02.129Z,37.78
2022-12-08T01:59:44.200Z,41.47
2022-12-08T02:02:43.247Z,40.53
2022-12-08T02:05:40.111Z,39.00
2022-12-08T02:08:35.114Z,41.08
2022-12-08T02:11:29.112Z,41.67
2022-12-08T02:14:27.097Z,38.05
2022-12-08T02:17:50.128Z,39.28
2022-12-08T02:20:51.114Z,32.50
2022-12-08T02:24:04.180Z,35.42
2022-12-08T02:26:49.232Z,39.25
2022-12-08T02:30:00.169Z,34.92
2022-12-08T02:33:22.107Z,39.00
2022-12-08T02:36:45.127Z,38.17
2022-12-08T02:39:51.119Z,37.30
2022-12-08T02:43:00.147Z,29.95
2022-12-08T02:45:52.255Z,29.15
2022-12-08T02:48:41.156Z,31.38
2022-12-08T02:51:14.208Z,30.70
2022-12-08T02:54:02.127Z,28.58
2022-12-08T02:56:41.213Z,35.63
2022-12-08T02:59:37.140Z,37.92
2022-12-08T03:02:16.554Z,43.15
2022-12-08T03:05:11.140Z,36.58
2022-12-08T03:08:02.235Z,44.80
2022-12-08T03:10:56.136Z,47.33
2022-12-08T03:13:41.203Z,36.30
2022-12-08T03:16:36.155Z,34.70
2022-12-08T03:19:29.209Z,36.65
2022-12-08T03:22:18.151Z,36.53
2022-12-08T03:24:53.208Z,34.67
2022-12-08T03:27:40.151Z,35.35
2022-12-08T03:30:14.282Z,40.72
2022-12-08T03:33:08.167Z,38.35
2022-12-08T03:35:53.149Z,32.65
2022-12-08T03:38:56.157Z,35.63
2022-12-08T03:41:43.165Z,29.67
2022-12-08T03:44:16.248Z,35.97
2022-12-08T03:47:03.151Z,34.78
2022-12-08T03:49:43.135Z,35.67
2022-12-08T03:52:31.214Z,31.42
2022-12-08T03:55:04.247Z,33.92
2022-12-08T03:57:51.150Z,33.30
2022-12-08T04:00:31.171Z,34.67
2022-12-08T04:03:25.191Z,33.20
2022-12-08T04:06:20.161Z,31.80
2022-12-08T04:09:14.173Z,33.03
2022-12-08T04:12:01.156Z,26.45
2022-12-08T04:14:34.274Z,25.60
2022-12-08T04:17:21.145Z,27.33
2022-12-08T04:19:54.309Z,29.65
2022-12-08T04:22:41.148Z,30.70
2022-12-08T04:25:22.140Z,28.30
2022-12-08T04:28:09.170Z,26.52
2022-12-08T04:30:49.167Z,27.20
2022-12-08T04:33:36.175Z,26.40
2022-12-08T04:36:18.167Z,25.42
2022-12-08T04:39:05.172Z,24.17
2022-12-08T04:41:38.408Z,25.38
2022-12-08T04:44:25.165Z,31.23
2022-12-08T04:46:58.320Z,33.65
2022-12-08T04:49:45.160Z,33.78
2022-12-08T04:52:25.197Z,30.63
2022-12-08T04:55:19.169Z,32.83
2022-12-08T04:58:06.166Z,28.90
2022-12-08T05:00:40.248Z,30.55
2022-12-08T05:03:28.818Z,27.75
2022-12-08T05:06:02.272Z,25.73
2022-12-08T05:08:50.161Z,24.55
2022-12-08T05:11:31.181Z,25.35
2022-12-08T05:14:27.168Z,23.55
2022-12-08T05:17:21.161Z,24.67
2022-12-08T05:20:08.177Z,27.00
2022-12-08T05:22:48.163Z,28.55
2022-12-08T05:25:36.200Z,29.20
2022-12-08T05:28:40.293Z,25.52
2022-12-08T05:31:32.264Z,27.77
2022-12-08T05:34:26.173Z,29.08
2022-12-08T05:37:20.174Z,24.75
2022-12-08T05:40:07.565Z,27.58
2022-12-08T05:42:41.261Z,28.25
2022-12-08T05:45:28.218Z,27.48
2022-12-08T05:48:08.185Z,26.98
2022-12-08T05:50:56.201Z,30.92
2022-12-08T05:53:36.194Z,26.52
2022-12-08T05:56:23.173Z,26.73
2022-12-08T05:59:04.190Z,26.33
2022-12-08T06:01:51.229Z,25.98
2022-12-08T06:04:24.267Z,22.50
2022-12-08T06:07:15.925Z,24.52
2022-12-08T06:09:56.191Z,28.83
2022-12-08T06:12:50.186Z,23.48
2022-12-08T06:15:37.179Z,29.90
2022-12-08T06:18:11.742Z,27.77
2022-12-08T06:20:58.200Z,25.50
2022-12-08T06:23:38.211Z,27.55
2022-12-08T06:26:32.183Z,30.92
2022-12-08T06:29:26.172Z,26.60
2022-12-08T06:32:25.844Z,28.13
2022-12-08T06:35:16.185Z,26.88
2022-12-08T06:37:51.500Z,30.25
2022-12-08T06:40:38.193Z,27.15
2022-12-08T06:43:18.216Z,27.02
2022-12-08T06:46:12.222Z,26.20
2022-12-08T06:48:59.212Z,30.00
2022-12-08T06:51:32.275Z,31.83
2022-12-08T06:54:19.200Z,33.20
2022-12-08T06:56:59.208Z,29.60
2022-12-08T06:59:53.241Z,29.35
2022-12-08T07:02:40.242Z,31.40
2022-12-08T07:05:13.279Z,36.67
2022-12-08T07:08:00.252Z,40.53
2022-12-08T07:10:33.275Z,43.70
2022-12-08T07:13:20.237Z,37.72
2022-12-08T07:16:00.220Z,30.42
2022-12-08T07:18:48.227Z,41.47
2022-12-08T07:21:29.184Z,43.72
2022-12-08T07:24:23.218Z,45.50
2022-12-08T07:27:10.224Z,47.38
2022-12-08T07:29:43.307Z,42.75
2022-12-08T07:32:30.217Z,43.72
2022-12-08T07:35:03.316Z,37.17
2022-12-08T07:37:50.207Z,36.25
2022-12-08T07:40:23.505Z,38.72
2022-12-08T07:43:10.249Z,46.53
2022-12-08T07:45:43.337Z,43.17
2022-12-08T07:48:30.234Z,33.70
2022-12-08T07:51:08.338Z,35.55
2022-12-08T07:53:56.212Z,38.38
2022-12-08T07:56:37.223Z,29.55
2022-12-08T07:59:31.207Z,30.52
2022-12-08T08:02:25.325Z,38.75
2022-12-08T08:05:00.444Z,41.45
2022-12-08T08:07:53.325Z,40.45
2022-12-08T08:10:26.376Z,36.88
2022-12-08T08:13:13.225Z,35.38
2022-12-08T08:15:47.449Z,43.10
2022-12-08T08:18:34.241Z,43.72
2022-12-08T08:21:43.068Z,41.08
2022-12-08T08:24:15.229Z,33.03
2022-12-08T08:26:55.264Z,26.42
2022-12-08T08:29:49.248Z,53.72
2022-12-08T08:32:40.225Z,61.78
2022-12-08T08:35:21.240Z,40.67
2022-12-08T08:38:08.248Z,38.05
2022-12-08T08:40:41.322Z,33.50
2022-12-08T08:43:38.596Z,29.38
2022-12-08T08:46:13.325Z,27.88
2022-12-08T08:49:00.237Z,29.05
2022-12-08T08:51:40.223Z,31.15
2022-12-08T08:54:34.280Z,26.98
2022-12-08T08:57:25.520Z,26.05
2022-12-08T09:00:07.569Z,29.13
2022-12-08T09:03:01.274Z,25.77
2022-12-08T09:05:48.293Z,32.00
2022-12-08T09:08:21.367Z,35.85
2022-12-08T09:11:08.241Z,32.35
2022-12-08T09:13:42.407Z,31.85
2022-12-08T09:16:29.286Z,32.20
2022-12-08T09:19:02.573Z,22.15
2022-12-08T09:21:49.261Z,26.70
2022-12-08T09:24:23.199Z,26.90
2022-12-08T09:27:10.250Z,26.48
2022-12-08T09:29:43.334Z,21.88
2022-12-08T09:32:30.275Z,27.08
2022-12-08T09:35:11.248Z,34.05
2022-12-08T09:38:05.266Z,23.52
2022-12-08T09:41:00.267Z,26.33
2022-12-08T09:43:53.382Z,29.08
2022-12-08T09:46:41.269Z,25.52
2022-12-08T09:49:24.362Z,26.85
2022-12-08T09:52:13.261Z,25.65
2022-12-08T09:54:49.379Z,23.45
2022-12-08T09:57:38.258Z,24.10
2022-12-08T10:00:14.514Z,24.88
2022-12-08T10:03:02.256Z,22.80
2022-12-08T10:05:46.239Z,21.27
2022-12-08T10:08:48.269Z,25.95
2022-12-08T10:11:53.286Z,23.20
2022-12-08T10:14:40.309Z,26.92
2022-12-08T10:17:50.283Z,24.85
2022-12-08T10:20:58.288Z,23.58
2022-12-08T10:23:36.338Z,21.92
2022-12-08T10:26:26.289Z,18.77
2022-12-08T10:29:01.439Z,20.38
2022-12-08T10:31:49.336Z,20.63
2022-12-08T10:34:26.347Z,21.95
2022-12-08T10:37:16.290Z,18.63
2022-12-08T10:39:57.299Z,21.13
2022-12-08T10:42:47.280Z,25.17
2022-12-08T10:45:48.318Z,22.20
2022-12-08T10:48:44.291Z,32.25
2022-12-08T10:51:36.289Z,22.70
2022-12-08T10:54:09.363Z,28.10
2022-12-08T10:57:02.295Z,21.35
2022-12-08T10:59:35.367Z,23.92
2022-12-08T11:02:27.389Z,23.25
2022-12-08T11:05:05.364Z,24.00
2022-12-08T11:08:00.415Z,24.67
2022-12-08T11:11:04.338Z,24.98
2022-12-08T11:13:58.291Z,21.05
2022-12-08T11:16:49.414Z,21.95
2022-12-08T11:19:24.370Z,24.35
2022-12-08T11:22:48.311Z,25.67
2022-12-08T11:25:26.417Z,22.23
2022-12-08T11:28:17.300Z,23.92
2022-12-08T11:30:57.626Z,22.80
2022-12-08T11:33:44.290Z,21.80
2022-12-08T11:36:28.299Z,23.17
2022-12-08T11:39:19.296Z,23.98
2022-12-08T11:41:53.412Z,22.40
2022-12-08T11:44:47.297Z,24.75
2022-12-08T11:47:55.569Z,26.27
2022-12-08T11:51:02.316Z,22.80
2022-12-08T11:53:54.426Z,26.48
2022-12-08T11:56:45.314Z,24.33
2022-12-08T11:59:36.291Z,25.80
2022-12-08T12:02:41.360Z,27.17
2022-12-08T12:06:12.565Z,23.65
2022-12-08T12:08:56.398Z,22.70
2022-12-08T12:12:23.306Z,23.90
2022-12-08T12:15:15.459Z,24.52
2022-12-08T12:18:39.310Z,24.50
2022-12-08T12:21:27.594Z,22.70
2022-12-08T12:24:31.574Z,22.90
2022-12-08T12:27:20.315Z,24.83
2022-12-08T12:30:18.327Z,22.52
2022-12-08T12:33:11.302Z,27.90
2022-12-08T12:35:56.320Z,28.23
2022-12-08T12:39:14.345Z,27.70
2022-12-08T12:42:16.346Z,30.35
2022-12-08T12:45:23.322Z,35.13
2022-12-08T12:47:59.945Z,34.35
2022-12-08T12:50:52.321Z,32.17
2022-12-08T12:53:25.390Z,33.80
2022-12-08T12:56:14.317Z,34.53
2022-12-08T12:58:49.258Z,30.48
2022-12-08T13:01:44.414Z,26.80
2022-12-08T13:04:17.384Z,31.23
2022-12-08T13:07:05.337Z,29.95
2022-12-08T13:09:42.549Z,29.50
2022-12-08T13:12:31.318Z,28.98
2022-12-08T13:15:18.356Z,27.35
2022-12-08T13:18:05.335Z,28.88
2022-12-08T13:20:48.424Z,26.60
2022-12-08T13:23:43.334Z,25.38
2022-12-08T13:26:38.378Z,26.55
2022-12-08T13:29:36.328Z,26.13
2022-12-08T13:33:16.286Z,25.73
2022-12-08T13:36:04.355Z,28.85
2022-12-08T13:38:53.326Z,26.58
2022-12-08T13:41:30.445Z,22.88
2022-12-08T13:49:03.333Z,25.63
2022-12-08T13:55:49.560Z,25.35
2022-12-08T13:57:50.399Z,27.05
2022-12-08T14:00:44.339Z,34.50
2022-12-08T14:03:38.390Z,29.33
2022-12-08T14:06:39.350Z,27.73
2022-12-08T14:09:30.392Z,28.00
2022-12-08T14:12:08.475Z,28.27
2022-12-08T14:15:03.861Z,30.27
2022-12-08T14:17:37.703Z,39.80
2022-12-08T14:20:31.348Z,44.03
2022-12-08T14:23:12.366Z,54.30
2022-12-08T14:26:06.355Z,58.13
2022-12-08T14:28:53.478Z,36.53
2022-12-08T14:31:26.470Z,32.30
2022-12-08T14:34:13.356Z,27.88
2022-12-08T14:36:46.506Z,33.05
2022-12-08T14:39:34.369Z,34.30
2022-12-08T14:42:14.351Z,32.42
2022-12-08T14:45:21.369Z,33.67
2022-12-08T14:47:54.438Z,31.80
2022-12-08T14:51:08.363Z,33.88
2022-12-08T14:53:53.624Z,39.53
2022-12-08T14:56:43.371Z,50.92
2022-12-08T14:59:25.447Z,57.88
2022-12-08T15:02:31.372Z,61.58
2022-12-08T15:05:20.489Z,66.22
2022-12-08T15:08:10.482Z,56.85
2022-12-08T15:10:54.382Z,52.47
2022-12-08T15:13:48.390Z,51.20
2022-12-08T15:16:38.407Z,49.50
2022-12-08T15:19:47.375Z,65.47
2022-12-08T15:22:35.397Z,70.80
2022-12-08T15:25:08.799Z,70.53
2022-12-08T15:27:55.392Z,67.80
2022-12-08T15:30:35.380Z,61.03
2022-12-08T15:33:22.385Z,58.65
2022-12-08T15:35:57.465Z,55.83
2022-12-08T15:38:44.391Z,61.30
2022-12-08T15:41:17.456Z,52.58
2022-12-08T15:44:04.409Z,37.55
2022-12-08T15:46:37.510Z,41.10
2022-12-08T15:49:29.420Z,40.92
2022-12-08T15:52:11.276Z,46.67
2022-12-08T15:54:58.412Z,46.88
2022-12-08T15:58:24.920Z,44.38
2022-12-08T16:00:53.450Z,51.15
2022-12-08T16:09:48.541Z,51.05
2022-12-08T16:15:58.997Z,41.03
2022-12-08T16:18:49.408Z,49.28
2022-12-08T16:22:04.684Z,49.20
2022-12-08T16:24:43.411Z,53.30
2022-12-08T16:28:00.355Z,85.72
2022-12-08T16:30:36.429Z,72.63
2022-12-08T16:33:30.452Z,89.93
2022-12-08T16:36:24.415Z,94.55
2022-12-08T16:39:18.431Z,97.30
2022-12-08T16:42:23.414Z,100.47
2022-12-08T16:45:03.822Z,98.30
2022-12-08T16:47:56.392Z,102.60
2022-12-08T16:50:32.522Z,139.68
2022-12-08T16:53:19.392Z,145.32
2022-12-08T16:55:54.496Z,142.25
2022-12-08T16:58:41.462Z,132.95
2022-12-08T17:01:26.595Z,140.13
2022-12-08T17:04:31.367Z,146.07
2022-12-08T17:07:18.391Z,111.43
2022-12-08T17:09:51.511Z,118.00
2022-12-08T17:12:38.415Z,188.85
2022-12-08T17:15:14.486Z,172.30
2022-12-08T17:18:01.399Z,144.65
2022-12-08T17:20:36.270Z,123.13
2022-12-08T17:23:23.430Z,113.57
2022-12-08T17:26:09.515Z,98.68
2022-12-08T17:29:01.150Z,96.18
2022-12-08T17:31:35.688Z,93.55
2022-12-08T17:34:22.429Z,108.93
2022-12-08T17:36:55.766Z,110.03
2022-12-08T17:39:43.418Z,123.43
2022-12-08T17:42:16.518Z,122.28
2022-12-08T17:45:03.602Z,112.15
2022-12-08T17:47:36.522Z,120.40
2022-12-08T17:50:23.479Z,124.60
2022-12-08T17:52:57.519Z,120.65
2022-12-08T17:55:45.757Z,145.73
2022-12-08T17:58:18.528Z,105.47
2022-12-08T18:01:05.467Z,100.55
2022-12-08T18:03:38.558Z,102.07
2022-12-08T18:06:29.596Z,89.13
2022-12-08T18:09:13.460Z,91.93
2022-12-08T18:12:00.419Z,75.00
2022-12-08T18:14:40.462Z,69.63
2022-12-08T18:17:34.504Z,76.90
2022-12-08T18:20:21.443Z,80.32
2022-12-08T18:23:01.463Z,80.63
2022-12-08T18:25:55.545Z,75.15
2022-12-08T18:28:43.445Z,73.22
2022-12-08T18:31:19.646Z,86.50
2022-12-08T18:34:06.447Z,80.78
2022-12-08T18:36:46.443Z,88.45
2022-12-08T18:39:39.458Z,84.03
2022-12-08T18:42:24.595Z,86.93
2022-12-08T18:45:15.746Z,114.03
2022-12-08T18:47:52.575Z,141.05
2022-12-08T18:50:39.433Z,129.30
2022-12-08T18:53:12.546Z,110.30
2022-12-08T18:55:59.511Z,77.75
2022-12-08T18:58:32.536Z,72.88
2022-12-08T19:01:22.497Z,84.32
2022-12-08T19:07:17.444Z,133.88
2022-12-08T19:10:06.045Z,94.97
2022-12-08T19:12:39.594Z,97.50
2022-12-08T19:15:27.496Z,81.03
2022-12-08T19:18:07.475Z,86.40
2022-12-08T19:21:03.533Z,92.35
2022-12-08T19:23:50.452Z,87.93
2022-12-08T19:26:24.540Z,74.70
2022-12-08T19:29:11.447Z,68.35
2022-12-08T19:31:44.637Z,59.00
2022-12-08T19:34:31.477Z,55.33
2022-12-08T19:37:04.553Z,56.28
2022-12-08T19:40:09.464Z,59.45
2022-12-08T19:43:07.454Z,65.85
2022-12-08T19:45:54.610Z,61.97
2022-12-08T19:48:34.518Z,61.00
2022-12-08T19:51:21.473Z,67.47
2022-12-08T19:54:01.472Z,64.63
2022-12-08T19:56:48.448Z,65.20
2022-12-08T19:59:28.498Z,64.82
2022-12-08T20:02:24.615Z,62.50
2022-12-08T20:05:19.471Z,57.25
2022-12-08T20:08:13.499Z,58.50
2022-12-08T20:11:07.469Z,63.90
2022-12-08T20:14:01.496Z,63.47
2022-12-08T20:16:48.548Z,54.72
2022-12-08T20:19:21.697Z,61.53
2022-12-08T20:22:08.482Z,71.90
2022-12-08T20:24:41.554Z,60.45
2022-12-08T20:27:30.469Z,72.32
2022-12-08T20:30:04.174Z,70.68
2022-12-08T20:33:05.497Z,64.22
2022-12-08T20:36:00.529Z,68.35
2022-12-08T20:38:47.520Z,61.80
2022-12-08T20:41:23.355Z,64.20
2022-12-08T20:44:11.498Z,66.78
2022-12-08T20:46:49.203Z,68.40
2022-12-08T20:49:36.515Z,62.38
2022-12-08T20:52:09.728Z,62.88
2022-12-08T20:54:56.541Z,58.95
2022-12-08T20:57:30.914Z,49.08
2022-12-08T21:00:17.696Z,101.50
2022-12-08T21:02:56.254Z,93.35
2022-12-08T21:05:45.579Z,83.78
2022-12-08T21:08:19.653Z,79.10
2022-12-08T21:11:06.588Z,76.07
2022-12-08T21:13:46.516Z,79.97
2022-12-08T21:16:33.597Z,78.57
2022-12-08T21:19:06.719Z,84.13
2022-12-08T21:21:53.533Z,84.22
2022-12-08T21:24:34.668Z,91.22
2022-12-08T21:27:28.504Z,103.82
2022-12-08T21:30:23.532Z,92.97
2022-12-08T21:33:10.654Z,78.63
2022-12-08T21:35:44.936Z,84.15
2022-12-08T21:38:31.542Z,145.15
2022-12-08T21:41:22.513Z,191.25
2022-12-08T21:44:16.729Z,154.75
2022-12-08T21:47:03.647Z,74.93
2022-12-08T21:49:36.765Z,58.85
2022-12-08T21:52:23.632Z,58.72
2022-12-08T21:54:56.780Z,58.42
2022-12-08T21:57:43.784Z,58.63
2022-12-08T22:00:28.805Z,58.88
2022-12-08T22:03:19.722Z,47.90
2022-12-08T22:06:00.588Z,43.95
2022-12-08T22:08:48.693Z,48.50
2022-12-08T22:11:28.634Z,42.22
2022-12-08T22:14:22.522Z,39.65
2022-12-08T22:17:09.594Z,34.15
2022-12-08T22:19:50.690Z,34.60
2022-12-08T22:22:46.566Z,40.58
2022-12-08T22:25:33.521Z,38.33
2022-12-08T22:28:06.781Z,44.20
2022-12-08T22:30:53.805Z,41.90
2022-12-08T22:33:26.645Z,49.60
2022-12-08T22:36:14.531Z,46.72
2022-12-08T22:38:47.873Z,51.63
2022-12-08T22:41:34.541Z,43.35
2022-12-08T22:44:14.569Z,48.47
2022-12-08T22:47:01.711Z,54.63
2022-12-08T22:49:36.537Z,58.83
2022-12-08T22:52:23.530Z,64.00
2022-12-08T22:54:56.728Z,63.63
2022-12-08T22:57:43.652Z,56.08
2022-12-08T23:00:18.909Z,49.70
2022-12-08T23:03:05.795Z,47.83
2022-12-08T23:05:44.712Z,48.63
2022-12-08T23:08:31.699Z,48.20
2022-12-08T23:11:04.636Z,48.63
2022-12-08T23:13:51.606Z,42.90
2022-12-08T23:16:24.672Z,46.83
2022-12-08T23:19:29.629Z,40.40
2022-12-08T23:22:28.732Z,41.90
2022-12-08T23:25:24.636Z,37.88
2022-12-08T23:28:11.738Z,47.13
2022-12-08T23:30:48.779Z,41.80
2022-12-08T23:33:42.719Z,46.67
2022-12-08T23:36:32.576Z,49.50
2022-12-08T23:39:05.686Z,40.33
2022-12-08T23:41:52.805Z,37.53
2022-12-08T23:44:26.009Z,35.08
2022-12-08T23:47:12.658Z,33.20
2022-12-08T23:49:45.698Z,34.83
2022-12-08T23:52:32.668Z,36.80
2022-12-08T23:55:12.644Z,30.75
2022-12-08T23:57:59.562Z,27.17
